Time;durP1;ratioP1;P1;durP2;ratioP2;P2;SDS_P1;SDS_P2;PMS_P1;PMS_P2;Temp;Humidity;BMP_temperature;BMP_pressure;BME280_temperature;BME280_humidity;BME280_pressure;Samples;Min_cycle;Max_cycle;Signal;HPM_P1;HPM_P2
2023/10/07 00:02:13;;;;;;;45.90;43.10;;;;;;;16.15;100.00;101230.63;5034237;28;20428;-41
2023/10/07 00:04:41;;;;;;;48.43;44.53;;;;;;;16.17;100.00;101220.47;5034085;28;20438;-42
2023/10/07 00:07:12;;;;;;;48.23;44.33;;;;;;;16.17;100.00;101225.84;5033854;28;20962;-42
2023/10/07 00:09:41;;;;;;;48.70;44.53;;;;;;;16.12;100.00;101235.63;5033182;28;20547;-42
2023/10/07 00:12:16;;;;;;;49.13;44.63;;;;;;;16.07;100.00;101232.78;5034070;28;20472;-41
2023/10/07 00:14:44;;;;;;;47.20;44.00;;;;;;;16.02;100.00;101234.25;5033831;28;20518;-41
2023/10/07 00:17:17;;;;;;;46.27;43.17;;;;;;;15.98;100.00;101232.22;5033742;28;20498;-41
2023/10/07 00:19:46;;;;;;;46.67;43.63;;;;;;;15.94;100.00;101229.16;5033258;28;20804;-40
2023/10/07 00:22:15;;;;;;;46.80;43.17;;;;;;;15.93;100.00;101232.88;5033608;28;20436;-41
2023/10/07 00:24:45;;;;;;;47.40;44.23;;;;;;;15.90;100.00;101243.25;5033900;28;20436;-42
2023/10/07 00:27:26;;;;;;;47.03;43.43;;;;;;;15.88;100.00;101254.25;5033721;28;20551;-41
2023/10/07 00:29:55;;;;;;;47.33;43.53;;;;;;;15.84;100.00;101249.50;5032921;28;20546;-41
2023/10/07 00:32:32;;;;;;;46.33;42.73;;;;;;;15.81;100.00;101247.25;5033438;28;21021;-41
2023/10/07 00:35:00;;;;;;;48.83;45.60;;;;;;;15.86;100.00;101247.44;5033584;28;20432;-41
2023/10/07 00:37:30;;;;;;;47.40;43.90;;;;;;;15.84;100.00;101244.94;5033489;28;20456;-41
2023/10/07 00:40:14;;;;;;;48.17;43.83;;;;;;;15.83;100.00;101255.94;5032531;28;21007;-41
2023/10/07 00:42:44;;;;;;;47.57;43.43;;;;;;;15.74;100.00;101257.25;5033431;28;20439;-41
2023/10/07 00:45:16;;;;;;;49.83;45.90;;;;;;;15.71;100.00;101263.84;5033560;28;20436;-42
2023/10/07 00:47:49;;;;;;;47.70;44.40;;;;;;;15.62;100.00;101254.41;5033327;28;20910;-42
2023/10/07 00:50:17;;;;;;;46.97;43.47;;;;;;;15.61;100.00;101255.47;5032609;28;20908;-41
2023/10/07 00:52:55;;;;;;;46.20;42.80;;;;;;;15.60;100.00;101248.44;5033282;28;20575;-42
2023/10/07 00:55:29;;;;;;;47.50;43.77;;;;;;;15.58;100.00;101253.22;5033315;28;20447;-41
2023/10/07 00:58:15;;;;;;;47.00;43.60;;;;;;;15.55;100.00;101252.81;5033199;28;20547;-41
2023/10/07 01:00:55;;;;;;;47.03;43.23;;;;;;;15.51;100.00;101249.72;5030270;28;20463;-41
2023/10/07 01:03:32;;;;;;;46.10;42.60;;;;;;;15.53;100.00;101250.34;5033224;28;20428;-41
2023/10/07 01:06:12;;;;;;;45.63;41.57;;;;;;;15.52;100.00;101242.50;5032903;28;20459;-43
2023/10/07 01:08:44;;;;;;;46.50;42.83;;;;;;;15.54;100.00;101230.47;5031960;28;20435;-42
2023/10/07 01:11:23;;;;;;;45.67;41.73;;;;;;;15.54;100.00;101230.47;5032433;28;20467;-42
2023/10/07 01:13:51;;;;;;;47.33;43.73;;;;;;;15.50;100.00;101223.91;5024980;28;20440;-40
2023/10/07 01:16:31;;;;;;;44.70;41.57;;;;;;;15.52;100.00;101234.44;5032543;28;20455;-42
2023/10/07 01:19:13;;;;;;;47.20;43.67;;;;;;;15.47;100.00;101238.59;5032243;28;20479;-41
2023/10/07 01:21:50;;;;;;;47.87;43.13;;;;;;;15.47;100.00;101245.84;5032976;28;20428;-42
2023/10/07 01:24:32;;;;;;;47.07;43.07;;;;;;;15.41;100.00;101242.09;5032605;28;20435;-42
2023/10/07 01:27:06;;;;;;;45.27;41.80;;;;;;;15.32;100.00;101239.91;5032544;28;20848;-42
2023/10/07 01:29:35;;;;;;;49.30;44.43;;;;;;;15.29;100.00;101249.19;5032036;28;20631;-42
2023/10/07 01:32:12;;;;;;;46.33;42.90;;;;;;;15.28;100.00;101261.00;5032378;28;20476;-43
2023/10/07 01:34:47;;;;;;;49.67;45.13;;;;;;;15.20;100.00;101260.44;5032488;28;20804;-41
2023/10/07 01:37:21;;;;;;;49.93;45.60;;;;;;;15.19;100.00;101256.91;5032512;28;20448;-42
2023/10/07 01:39:52;;;;;;;48.17;43.93;;;;;;;15.21;100.00;101259.38;5031765;28;20460;-42
2023/10/07 01:42:26;;;;;;;49.93;45.00;;;;;;;15.22;100.00;101247.59;5032590;28;20800;-41
2023/10/07 01:45:08;;;;;;;46.50;43.00;;;;;;;15.22;100.00;101248.44;5032350;28;20440;-40
2023/10/07 01:47:36;;;;;;;49.17;45.80;;;;;;;15.21;100.00;101243.25;5032014;28;20452;-42
2023/10/07 01:50:11;;;;;;;45.93;41.73;;;;;;;15.23;100.00;101252.75;5031478;28;21007;-41
2023/10/07 01:52:39;;;;;;;44.13;40.53;;;;;;;15.24;100.00;101257.09;5032428;28;20835;-41
2023/10/07 01:55:11;;;;;;;43.77;39.53;;;;;;;15.21;100.00;101254.00;5032228;28;20856;-42
2023/10/07 01:57:40;;;;;;;44.50;40.20;;;;;;;15.22;100.00;101263.72;5031990;28;20990;-41
2023/10/07 02:00:11;;;;;;;41.53;38.17;;;;;;;15.14;100.00;101259.41;5023464;28;20464;-42
2023/10/07 02:02:49;;;;;;;42.90;39.70;;;;;;;15.10;100.00;101252.00;5032222;28;20464;-42
2023/10/07 02:05:25;;;;;;;44.87;40.77;;;;;;;15.15;100.00;101249.47;5032137;28;20432;-42
2023/10/07 02:07:54;;;;;;;45.40;40.80;;;;;;;15.17;100.00;101247.44;5023553;28;20455;-41
2023/10/07 02:10:26;;;;;;;46.50;42.13;;;;;;;15.16;100.00;101251.97;5031066;28;20456;-41
2023/10/07 02:12:54;;;;;;;43.20;39.37;;;;;;;15.09;100.00;101253.84;5031605;28;20975;-41
2023/10/07 02:15:22;;;;;;;44.03;39.60;;;;;;;15.09;100.00;101248.47;5031898;28;20863;-42
2023/10/07 02:17:56;;;;;;;42.97;39.17;;;;;;;15.06;100.00;101248.09;5051848;23;20489;-44
2023/10/07 02:20:25;;;;;;;44.23;40.33;;;;;;;15.08;100.00;101249.53;5028267;28;20466;-49
2023/10/07 02:22:53;;;;;;;41.97;38.70;;;;;;;15.04;100.00;101261.75;5027949;28;20919;-42
2023/10/07 02:25:27;;;;;;;42.80;39.47;;;;;;;15.07;100.00;101263.16;5028905;28;20528;-43
2023/10/07 02:27:55;;;;;;;43.93;40.13;;;;;;;15.08;100.00;101262.16;5052739;28;20461;-45
2023/10/07 02:30:25;;;;;;;43.50;39.87;;;;;;;15.05;100.00;101258.03;5061245;28;20871;-44
2023/10/07 02:32:54;;;;;;;44.87;40.70;;;;;;;15.06;100.00;101254.28;5060122;28;20471;-43
2023/10/07 02:35:24;;;;;;;44.80;40.80;;;;;;;15.04;100.00;101250.16;5060682;28;20434;-46
2023/10/07 02:37:53;;;;;;;44.90;40.60;;;;;;;15.03;100.00;101256.56;5060311;28;20519;-42
2023/10/07 02:40:35;;;;;;;46.87;42.23;;;;;;;15.04;100.00;101266.28;5054813;28;20469;-43
2023/10/07 02:43:07;;;;;;;45.37;40.90;;;;;;;14.99;100.00;101264.25;5064875;28;20902;-45
2023/10/07 02:45:40;;;;;;;43.40;39.90;;;;;;;15.01;100.00;101277.44;5064164;28;20438;-42
2023/10/07 02:48:10;;;;;;;44.03;40.73;;;;;;;14.99;100.00;101280.38;5043736;28;20541;-44
2023/10/07 02:50:40;;;;;;;46.40;42.10;;;;;;;14.99;100.00;101282.22;5059553;28;20454;-42
2023/10/07 02:53:13;;;;;;;45.37;41.67;;;;;;;15.04;100.00;101282.41;5059498;28;20832;-46
2023/10/07 02:55:54;;;;;;;44.10;40.70;;;;;;;15.04;100.00;101279.72;5069109;28;20431;-45
2023/10/07 02:58:36;;;;;;;45.47;41.00;;;;;;;15.00;100.00;101294.59;5067649;28;20474;-45
2023/10/07 03:01:13;;;;;;;43.70;39.70;;;;;;;14.98;100.00;101289.44;5064980;28;20490;-43
2023/10/07 03:03:48;;;;;;;45.70;41.47;;;;;;;15.02;100.00;101295.22;5064451;28;20470;-43
2023/10/07 03:06:18;;;;;;;44.97;40.80;;;;;;;14.99;100.00;101288.41;5068599;28;20779;-44
2023/10/07 03:08:56;;;;;;;44.73;40.80;;;;;;;14.99;100.00;101295.66;5067471;28;20461;-44
2023/10/07 03:11:35;;;;;;;45.80;41.80;;;;;;;15.00;100.00;101294.59;5062785;28;20467;-44
2023/10/07 03:14:03;;;;;;;45.13;41.47;;;;;;;14.94;100.00;101289.03;5066930;28;20515;-43
2023/10/07 03:16:42;;;;;;;44.73;40.70;;;;;;;14.92;100.00;101290.28;5068104;28;20427;-43
2023/10/07 03:19:20;;;;;;;45.30;41.27;;;;;;;14.91;100.00;101300.19;5049278;28;20976;-47
2023/10/07 03:22:09;;;;;;;44.90;41.20;;;;;;;14.95;100.00;101288.00;5059617;28;20492;-46
2023/10/07 03:24:48;;;;;;;44.03;40.93;;;;;;;14.93;100.00;101292.75;5053124;28;20514;-45
2023/10/07 03:27:26;;;;;;;44.83;40.93;;;;;;;14.91;100.00;101299.38;5038590;28;20999;-47
2023/10/07 03:30:12;;;;;;;44.07;40.67;;;;;;;14.90;100.00;101303.91;5058223;28;20466;-44
2023/10/07 03:32:55;;;;;;;44.63;41.20;;;;;;;14.88;100.00;101295.25;5065662;28;20472;-46
2023/10/07 03:35:35;;;;;;;46.03;41.53;;;;;;;14.88;100.00;101299.78;5053491;28;20451;-43
2023/10/07 03:38:08;;;;;;;45.30;40.87;;;;;;;14.92;100.00;101306.41;5061907;28;20460;-44
2023/10/07 03:40:38;;;;;;;46.53;42.20;;;;;;;14.90;100.00;101316.53;5070851;28;20465;-43
2023/10/07 03:43:09;;;;;;;46.00;41.90;;;;;;;14.84;100.00;101314.69;5071418;28;20496;-43
2023/10/07 03:45:39;;;;;;;44.17;40.63;;;;;;;14.81;100.00;101307.88;5064093;28;20439;-46
2023/10/07 03:48:22;;;;;;;43.77;40.57;;;;;;;14.78;100.00;101310.97;5054172;28;20973;-42
2023/10/07 03:51:04;;;;;;;43.70;40.27;;;;;;;14.76;100.00;101320.28;5053865;28;21048;-44
2023/10/07 03:53:33;;;;;;;43.07;39.57;;;;;;;14.74;100.00;101325.03;5056664;28;20471;-45
2023/10/07 03:56:06;;;;;;;42.77;39.70;;;;;;;14.70;100.00;101324.63;5069583;28;20536;-48
2023/10/07 03:58:38;;;;;;;42.00;38.47;;;;;;;14.72;100.00;101321.75;5055837;28;20465;-45
2023/10/07 04:01:16;;;;;;;43.43;39.90;;;;;;;14.67;100.00;101330.41;5070030;28;20465;-43
2023/10/07 04:03:46;;;;;;;41.53;38.57;;;;;;;14.64;100.00;101325.47;5071540;28;20441;-47
2023/10/07 04:06:16;;;;;;;43.17;39.80;;;;;;;14.61;100.00;101328.56;5071174;28;20560;-45
2023/10/07 04:08:45;;;;;;;41.13;38.27;;;;;;;14.57;100.00;101330.03;5070552;28;21046;-43
2023/10/07 04:11:15;;;;;;;44.70;40.60;;;;;;;14.54;100.00;101335.81;5065297;28;20494;-45
2023/10/07 04:13:53;;;;;;;41.63;38.13;;;;;;;14.54;100.00;101325.06;5057690;28;20494;-44
2023/10/07 04:16:24;;;;;;;40.60;37.77;;;;;;;14.50;100.00;101325.69;5059466;28;20529;-44
2023/10/07 04:18:58;;;;;;;41.53;38.33;;;;;;;14.54;100.00;101330.44;5072369;28;20850;-43
2023/10/07 04:21:26;;;;;;;42.90;39.70;;;;;;;14.56;100.00;101331.06;5047319;28;20814;-47
2023/10/07 04:23:54;;;;;;;42.30;38.40;;;;;;;14.53;100.00;101339.53;5052756;28;20431;-44
2023/10/07 04:26:22;;;;;;;43.17;40.10;;;;;;;14.54;100.00;101334.97;5054040;28;20523;-43
2023/10/07 04:28:53;;;;;;;41.27;38.33;;;;;;;14.51;100.00;101330.03;5056298;28;20833;-45
2023/10/07 04:31:29;;;;;;;43.13;40.10;;;;;;;14.53;100.00;101325.28;5055391;28;20565;-45
2023/10/07 04:34:01;;;;;;;42.03;39.13;;;;;;;14.43;100.00;101323.00;5065082;28;20976;-44
2023/10/07 04:36:33;;;;;;;43.30;40.10;;;;;;;14.47;100.00;101321.56;5055705;28;20463;-44
2023/10/07 04:39:16;;;;;;;42.13;38.80;;;;;;;14.42;100.00;101329.44;5050332;28;20517;-45
2023/10/07 04:41:43;;;;;;;42.37;39.00;;;;;;;14.42;100.00;101337.47;5053842;28;20435;-43
2023/10/07 04:44:23;;;;;;;42.77;39.77;;;;;;;14.39;100.00;101335.19;5054683;28;20430;-43
2023/10/07 04:46:56;;;;;;;42.77;39.70;;;;;;;14.32;100.00;101342.38;5060548;28;20526;-43
2023/10/07 04:49:36;;;;;;;44.73;40.87;;;;;;;14.31;100.00;101346.91;5064319;28;20458;-43
2023/10/07 04:52:07;;;;;;;43.43;40.43;;;;;;;14.31;100.00;101348.78;5059225;28;20442;-44
2023/10/07 04:54:36;;;;;;;42.93;39.30;;;;;;;14.27;100.00;101339.50;5053781;28;21036;-44
2023/10/07 04:57:09;;;;;;;44.40;40.10;;;;;;;14.26;100.00;101337.84;5053378;28;20865;-43
2023/10/07 04:59:45;;;;;;;43.53;39.77;;;;;;;14.26;100.00;101335.16;5043812;28;20539;-43
2023/10/07 05:02:15;;;;;;;41.83;39.00;;;;;;;14.23;100.00;101328.34;5046085;28;20426;-43
2023/10/07 05:04:49;;;;;;;45.60;41.67;;;;;;;14.22;100.00;101328.53;5057656;28;20439;-44
2023/10/07 05:07:26;;;;;;;40.83;38.33;;;;;;;14.25;100.00;101325.44;5048499;28;20458;-44
2023/10/07 05:09:56;;;;;;;43.67;39.73;;;;;;;14.26;100.00;101321.75;5062290;28;20550;-43
2023/10/07 05:12:24;;;;;;;43.20;39.03;;;;;;;14.25;100.00;101320.91;5060976;28;20439;-43
2023/10/07 05:14:52;;;;;;;42.80;39.70;;;;;;;14.31;100.00;101303.16;5045571;28;20509;-43
2023/10/07 05:17:22;;;;;;;45.00;40.60;;;;;;;14.33;100.00;101303.84;5044876;28;21059;-45
2023/10/07 05:19:49;;;;;;;45.90;42.50;;;;;;;14.36;100.00;101303.41;5045068;28;20459;-43
2023/10/07 05:22:18;;;;;;;48.10;43.90;;;;;;;14.37;100.00;101297.84;5042989;28;20440;-44
2023/10/07 05:24:51;;;;;;;45.60;42.37;;;;;;;14.35;100.00;101305.28;5039555;28;20437;-47
2023/10/07 05:27:19;;;;;;;43.23;40.10;;;;;;;14.37;100.00;101305.06;5045652;28;20463;-43
2023/10/07 05:29:47;;;;;;;46.07;42.77;;;;;;;14.36;100.00;101308.78;5045911;28;20456;-44
2023/10/07 05:32:20;;;;;;;48.60;43.57;;;;;;;14.33;100.00;101311.88;5033514;28;20459;-44
2023/10/07 05:34:49;;;;;;;46.50;42.83;;;;;;;14.34;100.00;101324.25;5035695;28;20480;-44
2023/10/07 05:37:17;;;;;;;45.43;42.13;;;;;;;14.32;100.00;101321.78;5048685;28;20454;-44
2023/10/07 05:39:45;;;;;;;44.80;41.03;;;;;;;14.27;100.00;101326.09;5036059;28;20817;-43
2023/10/07 05:42:13;;;;;;;44.47;41.00;;;;;;;14.26;100.00;101327.09;5036526;28;21029;-46
2023/10/07 05:44:43;;;;;;;46.10;42.47;;;;;;;14.25;100.00;101330.81;5047816;28;20945;-46
2023/10/07 05:47:12;;;;;;;46.70;43.10;;;;;;;14.25;100.00;101333.50;5037642;28;20476;-46
2023/10/07 05:49:42;;;;;;;45.43;41.77;;;;;;;14.23;100.00;101338.25;5043020;28;20494;-46
2023/10/07 05:52:10;;;;;;;43.17;40.27;;;;;;;14.20;100.00;101338.66;5044775;28;20877;-46
2023/10/07 05:54:40;;;;;;;46.47;42.70;;;;;;;14.16;100.00;101342.78;5045611;28;20471;-44
2023/10/07 05:57:09;;;;;;;45.83;42.20;;;;;;;14.12;100.00;101346.91;5040753;28;20459;-44
2023/10/07 05:59:38;;;;;;;46.40;42.53;;;;;;;14.10;100.00;101347.13;5039835;28;20459;-44
2023/10/07 06:02:12;;;;;;;44.93;40.83;;;;;;;14.12;100.00;101357.66;5035910;28;20448;-45
2023/10/07 06:04:44;;;;;;;42.60;39.77;;;;;;;14.08;100.00;101364.44;5038992;28;20851;-46
2023/10/07 06:07:14;;;;;;;47.70;43.30;;;;;;;14.08;100.00;101367.13;5046629;28;20455;-44
2023/10/07 06:09:44;;;;;;;47.53;43.80;;;;;;;14.09;100.00;101371.47;5040808;28;20463;-45
2023/10/07 06:12:12;;;;;;;46.40;42.17;;;;;;;14.09;100.00;101368.78;5046068;28;20432;-49
2023/10/07 06:14:40;;;;;;;45.70;42.53;;;;;;;14.08;100.00;101380.53;5049054;28;21001;-45
2023/10/07 06:17:10;;;;;;;46.47;42.43;;;;;;;14.08;100.00;101380.53;5045702;28;20558;-44
2023/10/07 06:19:40;;;;;;;49.30;44.80;;;;;;;14.06;100.00;101386.13;5040062;28;20881;-43
2023/10/07 06:22:12;;;;;;;46.67;42.77;;;;;;;13.99;100.00;101392.47;5036727;28;20445;-43
2023/10/07 06:24:41;;;;;;;49.40;45.10;;;;;;;13.98;100.00;101394.31;5045526;28;20423;-44
2023/10/07 06:27:11;;;;;;;49.07;45.27;;;;;;;14.02;100.00;101389.38;5040761;28;21246;-45
2023/10/07 06:29:43;;;;;;;48.50;44.27;;;;;;;13.99;100.00;101392.47;5045308;28;20463;-45
2023/10/07 06:32:23;;;;;;;47.53;44.07;;;;;;;13.93;100.00;101386.06;5040027;28;20429;-43
2023/10/07 06:34:51;;;;;;;48.83;45.40;;;;;;;13.81;100.00;101401.94;5049051;28;20471;-43
2023/10/07 06:37:28;;;;;;;49.63;45.80;;;;;;;13.76;100.00;101398.19;5048670;28;20455;-44
2023/10/07 06:39:57;;;;;;;49.97;46.03;;;;;;;13.73;100.00;101410.16;5039300;28;20489;-43
2023/10/07 06:42:26;;;;;;;48.60;43.70;;;;;;;13.76;100.00;101414.28;5040202;28;20438;-43
2023/10/07 06:44:56;;;;;;;51.17;47.27;;;;;;;13.73;100.00;101422.72;5049234;28;20432;-43
2023/10/07 06:47:29;;;;;;;49.47;45.77;;;;;;;13.84;100.00;101422.97;5044334;28;20484;-43
2023/10/07 06:49:58;;;;;;;48.33;44.57;;;;;;;13.86;100.00;101428.13;5037944;28;21075;-46
2023/10/07 06:52:28;;;;;;;48.20;44.40;;;;;;;13.88;100.00;101420.72;5043406;28;20463;-43
2023/10/07 06:54:55;;;;;;;47.97;44.90;;;;;;;13.92;100.00;101423.84;5042739;28;21130;-43
2023/10/07 06:57:35;;;;;;;46.77;43.13;;;;;;;13.96;100.00;101433.09;5037205;28;20873;-45
2023/10/07 07:00:09;;;;;;;47.13;44.33;;;;;;;13.83;100.00;101441.94;5045148;28;20546;-43
2023/10/07 07:02:36;;;;;;;50.23;46.93;;;;;;;13.78;100.00;101434.50;5035749;28;20458;-44
2023/10/07 07:05:11;;;;;;;48.50;44.80;;;;;;;13.75;100.00;101439.44;5040880;28;20460;-43
2023/10/07 07:07:41;;;;;;;48.13;44.70;;;;;;;13.74;100.00;101441.28;5036528;28;20517;-48
2023/10/07 07:10:16;;;;;;;47.40;43.80;;;;;;;13.74;100.00;101435.91;5041561;28;20451;-45
2023/10/07 07:12:44;;;;;;;46.80;43.60;;;;;;;13.76;100.00;101435.72;5047193;28;20926;-48
2023/10/07 07:15:26;;;;;;;45.50;42.40;;;;;;;13.69;100.00;101442.91;5046116;28;20850;-43
2023/10/07 07:18:02;;;;;;;46.50;43.80;;;;;;;13.65;100.00;101445.16;5040825;28;20459;-46
2023/10/07 07:20:33;;;;;;;48.00;44.30;;;;;;;13.76;100.00;101441.94;5042307;28;20566;-46
2023/10/07 07:23:03;;;;;;;47.13;43.90;;;;;;;13.71;100.00;101446.22;5048276;28;20454;-46
2023/10/07 07:25:36;;;;;;;44.87;41.97;;;;;;;13.52;100.00;101439.75;5040364;28;20439;-45
2023/10/07 07:28:09;;;;;;;46.47;43.63;;;;;;;13.57;100.00;101434.63;5041618;28;20443;-46
2023/10/07 07:30:38;;;;;;;43.43;40.73;;;;;;;13.57;100.00;101445.34;5034257;28;20554;-47
2023/10/07 07:33:11;;;;;;;42.40;39.40;;;;;;;13.67;100.00;101455.69;5039502;28;20438;-46
2023/10/07 07:35:43;;;;;;;43.47;40.70;;;;;;;13.75;100.00;101458.19;5045820;28;20524;-46
2023/10/07 07:38:23;;;;;;;40.83;38.40;;;;;;;13.69;100.00;101449.09;5037628;28;20509;-46
2023/10/07 07:40:52;;;;;;;40.17;37.63;;;;;;;13.67;100.00;101458.38;5032949;28;20474;-45
2023/10/07 07:43:23;;;;;;;40.90;38.50;;;;;;;13.75;100.00;101466.22;5041689;28;20923;-43
2023/10/07 07:45:56;;;;;;;39.80;37.10;;;;;;;13.67;100.00;101458.38;5040134;28;20458;-43
2023/10/07 07:48:25;;;;;;;42.63;39.83;;;;;;;13.64;100.00;101461.44;5035018;28;20521;-45
2023/10/07 07:50:54;;;;;;;41.27;38.87;;;;;;;13.66;100.00;101460.22;5036450;28;20460;-47
2023/10/07 07:53:23;;;;;;;40.73;38.37;;;;;;;13.59;100.00;101469.28;5045284;28;20432;-45
2023/10/07 07:55:56;;;;;;;40.10;37.60;;;;;;;13.62;100.00;101458.94;5046151;28;20498;-43
2023/10/07 07:58:25;;;;;;;40.00;37.80;;;;;;;13.64;100.00;101454.25;5037358;28;20675;-43
2023/10/07 08:01:04;;;;;;;39.40;37.00;;;;;;;13.76;100.00;101457.19;5045379;28;20534;-44
2023/10/07 08:03:38;;;;;;;39.23;36.73;;;;;;;13.73;100.00;101474.50;5041430;28;20498;-43
2023/10/07 08:06:06;;;;;;;39.17;37.07;;;;;;;13.74;100.00;101468.09;5042898;28;20434;-43
2023/10/07 08:08:36;;;;;;;41.23;38.83;;;;;;;13.76;100.00;101462.53;5045965;28;20451;-44
2023/10/07 08:11:05;;;;;;;39.90;37.47;;;;;;;13.79;100.00;101460.28;5045721;28;20474;-45
2023/10/07 08:13:33;;;;;;;41.10;38.30;;;;;;;13.89;100.00;101459.88;5042104;28;20459;-48
2023/10/07 08:16:05;;;;;;;40.10;37.77;;;;;;;13.99;100.00;101459.53;5041999;28;21002;-43
2023/10/07 08:18:33;;;;;;;39.63;37.20;;;;;;;14.03;100.00;101466.97;5031609;28;20831;-47
2023/10/07 08:21:08;;;;;;;39.33;36.70;;;;;;;14.10;100.00;101451.72;5032067;28;20811;-43
2023/10/07 08:23:40;;;;;;;40.30;37.50;;;;;;;14.24;100.00;101453.41;5031356;28;20471;-43
2023/10/07 08:26:12;;;;;;;38.87;36.43;;;;;;;14.27;100.00;101446.81;5033570;28;20440;-46
2023/10/07 08:28:44;;;;;;;40.47;38.37;;;;;;;14.34;100.00;101450.34;5032046;28;21284;-43
2023/10/07 08:31:16;;;;;;;40.73;37.83;;;;;;;14.47;100.00;101449.53;5031696;28;20456;-44
2023/10/07 08:33:52;;;;;;;39.50;37.10;;;;;;;14.33;100.00;101446.03;5032569;28;20432;-46
2023/10/07 08:36:27;;;;;;;41.00;38.50;;;;;;;14.37;100.00;101456.13;5032277;28;20467;-45
2023/10/07 08:38:58;;;;;;;40.93;38.40;;;;;;;14.46;100.00;101453.25;5030944;28;20564;-43
2023/10/07 08:41:28;;;;;;;39.40;37.10;;;;;;;14.51;100.00;101457.00;5031139;28;20444;-43
2023/10/07 08:44:06;;;;;;;38.70;36.40;;;;;;;14.54;100.00;101448.53;5032011;28;20490;-45
2023/10/07 08:46:39;;;;;;;38.97;36.53;;;;;;;14.57;100.00;101445.44;5031434;28;20475;-43
2023/10/07 08:49:15;;;;;;;40.43;37.70;;;;;;;14.61;100.00;101440.47;5031871;28;20432;-43
2023/10/07 08:51:43;;;;;;;39.43;36.97;;;;;;;14.50;100.00;101443.78;5031021;28;20428;-44
2023/10/07 08:54:17;;;;;;;39.20;36.90;;;;;;;14.53;100.00;101438.00;5031514;28;20436;-45
2023/10/07 08:56:54;;;;;;;39.60;37.17;;;;;;;14.56;100.00;101443.78;5030878;28;20475;-47
2023/10/07 08:59:24;;;;;;;40.10;37.70;;;;;;;14.60;100.00;101426.25;5030681;28;20444;-43
2023/10/07 09:01:57;;;;;;;40.80;38.10;;;;;;;14.74;100.00;101419.84;5032055;28;20807;-43
2023/10/07 09:04:25;;;;;;;39.80;37.43;;;;;;;14.87;100.00;101417.13;5030876;28;20440;-44
2023/10/07 09:06:54;;;;;;;40.87;38.57;;;;;;;14.89;100.00;101425.81;5031080;28;20923;-42
2023/10/07 09:09:38;;;;;;;41.03;38.70;;;;;;;14.91;100.00;101433.66;5031174;28;20554;-45
2023/10/07 09:12:14;;;;;;;39.87;37.47;;;;;;;14.88;100.00;101437.59;5032295;28;20436;-43
2023/10/07 09:14:51;;;;;;;41.43;39.13;;;;;;;14.88;100.00;101434.91;5029777;28;20472;-44
2023/10/07 09:17:21;;;;;;;42.73;40.07;;;;;;;14.84;100.00;101436.34;5029745;28;20464;-45
2023/10/07 09:19:52;;;;;;;40.17;37.67;;;;;;;14.85;100.00;101429.94;5029589;28;20547;-45
2023/10/07 09:22:24;;;;;;;41.93;39.37;;;;;;;14.92;100.00;101441.50;5028978;28;20787;-43
2023/10/07 09:25:08;;;;;;;41.23;38.80;;;;;;;15.07;100.00;101443.13;5030066;28;20463;-45
2023/10/07 09:27:37;;;;;;;41.33;38.90;;;;;;;14.89;100.00;101441.09;5031717;28;20456;-46
2023/10/07 09:30:34;;;;;;;40.97;38.43;;;;;;;14.96;100.00;101428.50;5028149;28;20548;-47
2023/10/07 09:32:57;;;;;;;43.63;40.40;;;;;;;15.03;100.00;101436.53;5030421;28;20510;-43
2023/10/07 09:35:26;;;;;;;44.23;40.10;;;;;;;15.30;100.00;101433.59;5029721;28;20482;-46
2023/10/07 09:37:55;;;;;;;43.70;40.90;;;;;;;15.50;100.00;101429.00;5029866;28;20494;-44
2023/10/07 09:43:07;;;;;;;40.10;37.80;;;;;;;15.70;100.00;101428.13;5030029;28;20438;-42
2023/10/07 09:45:38;;;;;;;40.57;37.73;;;;;;;15.63;100.00;101427.31;5029706;28;20436;-43
2023/10/07 09:48:09;;;;;;;40.87;38.37;;;;;;;15.76;100.00;101438.03;5030851;28;20463;-43
2023/10/07 09:50:42;;;;;;;41.60;38.93;;;;;;;15.74;100.00;101432.84;5030494;28;20558;-47
2023/10/07 09:53:27;;;;;;;41.93;39.03;;;;;;;15.54;100.00;101440.16;5030266;28;20475;-44
2023/10/07 09:56:21;;;;;;;43.07;39.93;;;;;;;15.48;100.00;101449.91;5030984;28;20475;-46
2023/10/07 09:59:15;;;;;;;40.67;38.50;;;;;;;15.58;100.00;101445.94;5031609;28;20468;-44
2023/10/07 10:02:16;;;;;;;41.50;38.90;;;;;;;15.59;100.00;101451.09;5029654;28;20542;-42
2023/10/07 10:04:57;;;;;;;40.60;37.97;;;;;;;15.26;100.00;101451.16;5029754;28;20436;-47
2023/10/07 10:07:40;;;;;;;40.73;38.27;;;;;;;15.08;100.00;101463.59;5028866;28;20538;-43
2023/10/07 10:10:13;;;;;;;41.97;39.40;;;;;;;14.90;100.00;101462.34;5029693;28;20467;-45
2023/10/07 10:13:06;;;;;;;42.37;39.90;;;;;;;14.90;100.00;101469.63;5029759;28;20847;-44
2023/10/07 10:15:57;;;;;;;41.87;39.10;;;;;;;14.83;100.00;101487.56;5029691;28;20482;-45
2023/10/07 10:18:38;;;;;;;42.30;38.90;;;;;;;14.97;100.00;101486.53;5031751;28;20464;-47
2023/10/07 10:21:11;;;;;;;39.90;37.30;;;;;;;14.75;100.00;101482.41;5032127;28;20546;-47
2023/10/07 10:23:41;;;;;;;40.50;37.93;;;;;;;14.73;100.00;101492.50;5032557;28;20865;-43
2023/10/07 10:26:22;;;;;;;41.07;38.40;;;;;;;14.84;100.00;101490.03;5033910;28;20436;-45
2023/10/07 10:29:04;;;;;;;41.77;39.23;;;;;;;14.95;100.00;101493.97;5038396;28;20997;-46
2023/10/07 10:31:33;;;;;;;41.47;38.40;;;;;;;15.17;100.00;101497.28;5031801;28;20444;-44
2023/10/07 10:34:04;;;;;;;41.77;38.50;;;;;;;15.21;100.00;101501.19;5028486;28;21167;-44
2023/10/07 10:36:38;;;;;;;40.87;37.87;;;;;;;15.17;100.00;101506.16;5028985;28;20483;-43
2023/10/07 10:39:18;;;;;;;41.93;38.93;;;;;;;15.18;100.00;101512.34;5027987;28;20452;-44
2023/10/07 10:42:09;;;;;;;41.77;39.00;;;;;;;15.24;100.00;101515.03;5029226;28;20447;-46
2023/10/07 10:44:42;;;;;;;42.67;39.23;;;;;;;15.19;100.00;101522.91;5029757;28;20528;-43
2023/10/07 10:47:10;;;;;;;42.10;39.23;;;;;;;15.30;100.00;101526.81;5028752;28;20459;-42
2023/10/07 10:49:43;;;;;;;41.40;38.43;;;;;;;15.16;100.00;101530.56;5028857;28;20457;-47
2023/10/07 10:52:13;;;;;;;40.43;37.70;;;;;;;15.05;100.00;101531.19;5028618;28;20443;-43
2023/10/07 10:54:42;;;;;;;40.47;37.57;;;;;;;14.97;100.00;101534.88;5029137;28;20451;-45
2023/10/07 10:57:14;;;;;;;41.60;38.80;;;;;;;14.96;100.00;101526.00;5028339;28;20975;-45
2023/10/07 10:59:47;;;;;;;40.70;37.77;;;;;;;14.95;100.00;101527.03;5027558;28;20812;-45
2023/10/07 11:02:20;;;;;;;39.37;36.60;;;;;;;14.75;100.00;101534.25;5028258;28;20490;-43
2023/10/07 11:04:50;;;;;;;41.40;38.10;;;;;;;14.61;100.00;101545.97;5030499;28;20510;-42
2023/10/07 11:07:19;;;;;;;43.03;40.50;;;;;;;14.58;100.00;101540.19;5028357;28;20480;-44
2023/10/07 11:09:48;;;;;;;42.53;39.73;;;;;;;14.50;100.00;101543.06;5027380;28;20460;-44
2023/10/07 11:12:17;;;;;;;39.37;36.50;;;;;;;14.31;100.00;101545.47;5027088;28;20856;-43
2023/10/07 11:14:47;;;;;;;42.00;39.20;;;;;;;14.02;100.00;101542.25;5028357;28;20444;-43
2023/10/07 11:17:16;;;;;;;39.20;36.03;;;;;;;13.90;100.00;101554.56;5027645;28;20476;-43
2023/10/07 11:19:47;;;;;;;39.97;36.57;;;;;;;13.71;100.00;101561.47;5027602;28;20456;-45
2023/10/07 11:22:19;;;;;;;37.00;33.90;;;;;;;13.47;100.00;101562.75;5028745;28;20523;-49
2023/10/07 11:24:50;;;;;;;39.93;36.53;;;;;;;13.47;100.00;101564.63;5028016;28;20432;-43
2023/10/07 11:27:19;;;;;;;36.97;34.20;;;;;;;13.32;100.00;101559.34;5033887;28;20456;-48
2023/10/07 11:29:58;;;;;;;37.93;34.80;;;;;;;13.42;100.00;101554.47;5031767;28;20459;-45
2023/10/07 11:32:30;;;;;;;38.20;35.30;;;;;;;13.36;100.00;101559.78;5032377;28;21001;-46